createdAt,value
2018-12-15T00:00:30.365Z,12.55
2018-12-15T00:05:33.078Z,11.65
2018-12-15T00:10:35.588Z,12.63
2018-12-15T00:15:37.949Z,11.90
2018-12-15T00:20:40.337Z,12.78
2018-12-15T00:25:42.933Z,12.43
2018-12-15T00:30:45.263Z,12.80
2018-12-15T00:35:47.605Z,12.73
2018-12-15T00:40:50.024Z,11.80
2018-12-15T00:45:52.389Z,12.25
2018-12-15T00:50:54.814Z,12.23
2018-12-15T00:55:57.098Z,13.08
2018-12-15T01:00:59.828Z,11.75
2018-12-15T01:06:02.350Z,13.03
2018-12-15T01:11:04.780Z,12.43
2018-12-15T01:16:07.161Z,13.72
2018-12-15T01:21:09.537Z,13.72
2018-12-15T01:26:11.957Z,12.35
2018-12-15T01:31:14.367Z,13.68
2018-12-15T01:36:16.689Z,12.75
2018-12-15T01:41:19.101Z,11.60
2018-12-15T01:46:21.787Z,12.20
2018-12-15T01:51:24.219Z,12.88
2018-12-15T01:56:26.558Z,12.07
2018-12-15T02:01:29.046Z,13.22
2018-12-15T02:06:31.899Z,13.85
2018-12-15T02:11:34.285Z,12.03
2018-12-15T02:16:37.876Z,12.47
2018-12-15T02:21:40.672Z,12.33
2018-12-15T02:26:42.971Z,12.70
2018-12-15T02:31:45.305Z,12.90
2018-12-15T02:36:47.648Z,13.18
2018-12-15T02:41:50.090Z,12.30
2018-12-15T02:46:52.563Z,11.10
2018-12-15T02:51:54.938Z,12.15
2018-12-15T02:56:57.597Z,11.12
2018-12-15T03:01:59.990Z,11.48
2018-12-15T03:07:02.429Z,11.85
2018-12-15T03:12:04.822Z,11.03
2018-12-15T03:17:07.364Z,11.20
2018-12-15T03:22:09.726Z,11.05
2018-12-15T03:27:12.092Z,11.05
2018-12-15T03:32:15.820Z,11.68
2018-12-15T03:37:18.432Z,11.38
2018-12-15T03:42:20.757Z,11.35
2018-12-15T03:47:23.116Z,12.60
2018-12-15T03:52:25.622Z,12.07
2018-12-15T03:57:27.959Z,12.65
2018-12-15T04:02:30.602Z,12.68
2018-12-15T04:07:32.881Z,11.80
2018-12-15T04:12:35.434Z,10.55
2018-12-15T04:17:37.791Z,10.68
2018-12-15T04:22:40.344Z,11.55
2018-12-15T04:27:42.674Z,12.58
2018-12-15T04:32:45.545Z,12.37
2018-12-15T04:37:48.189Z,11.73
2018-12-15T04:42:51.662Z,11.08
2018-12-15T04:47:54.093Z,11.25
2018-12-15T04:52:56.468Z,12.58
2018-12-15T04:57:58.802Z,11.12
2018-12-15T05:03:02.293Z,11.75
2018-12-15T05:08:04.865Z,12.50
2018-12-15T05:13:07.262Z,12.93
2018-12-15T05:18:09.643Z,12.13
2018-12-15T05:23:12.000Z,12.82
2018-12-15T05:28:14.325Z,12.00
2018-12-15T05:33:16.670Z,12.13
2018-12-15T05:38:19.026Z,12.55
2018-12-15T05:43:21.597Z,13.32
2018-12-15T05:48:25.271Z,12.07
2018-12-15T05:53:27.978Z,12.13
2018-12-15T05:58:30.371Z,13.32
2018-12-15T06:03:32.741Z,12.28
2018-12-15T06:08:35.151Z,11.95
2018-12-15T06:13:37.589Z,12.20
2018-12-15T06:18:40.174Z,12.73
2018-12-15T06:23:42.726Z,12.88
2018-12-15T06:28:45.045Z,12.68
2018-12-15T06:33:47.391Z,12.15
2018-12-15T06:38:49.710Z,12.98
2018-12-15T06:43:52.236Z,13.03
2018-12-15T06:48:54.703Z,13.22
2018-12-15T06:53:57.055Z,13.00
2018-12-15T06:58:59.517Z,12.20
2018-12-15T07:04:01.936Z,12.63
2018-12-15T07:09:05.849Z,11.35
2018-12-15T07:14:08.216Z,12.60
2018-12-15T07:19:10.922Z,11.78
2018-12-15T07:24:14.131Z,11.25
2018-12-15T07:29:16.434Z,10.50
2018-12-15T07:34:18.798Z,11.88
2018-12-15T07:39:21.241Z,10.50
2018-12-15T07:44:23.575Z,10.03
2018-12-15T07:49:25.888Z,11.70
2018-12-15T07:54:28.182Z,11.08
2018-12-15T07:59:30.600Z,11.15
2018-12-15T08:04:33.171Z,10.25
2018-12-15T08:09:35.907Z,10.40
2018-12-15T08:14:38.571Z,9.80
2018-12-15T08:19:41.131Z,9.83
2018-12-15T08:24:44.150Z,9.75
2018-12-15T08:29:46.579Z,9.30
2018-12-15T08:34:49.158Z,9.80
2018-12-15T08:39:51.638Z,10.43
2018-12-15T08:44:54.251Z,9.98
2018-12-15T08:49:57.009Z,11.15
2018-12-15T08:54:59.364Z,10.68
2018-12-15T09:00:02.469Z,10.95
2018-12-15T09:05:05.362Z,10.60
2018-12-15T09:10:08.031Z,11.08
2018-12-15T09:15:10.772Z,10.70
2018-12-15T09:20:13.535Z,10.55
2018-12-15T09:25:16.153Z,10.20
2018-12-15T09:30:18.829Z,10.53
2018-12-15T09:35:21.207Z,10.38
2018-12-15T09:40:23.710Z,11.45
2018-12-15T09:45:26.220Z,11.03
2018-12-15T09:50:28.743Z,10.55
2018-12-15T09:55:31.354Z,10.90
2018-12-15T10:00:33.858Z,10.80
2018-12-15T10:05:36.335Z,10.15
2018-12-15T10:10:38.906Z,11.20
2018-12-15T10:15:41.430Z,10.65
2018-12-15T10:20:44.613Z,10.23
2018-12-15T10:25:47.135Z,10.10
2018-12-15T10:30:55.127Z,10.38
2018-12-15T10:35:57.821Z,10.40
2018-12-15T10:41:00.420Z,10.95
2018-12-15T10:46:02.937Z,10.32
2018-12-15T10:51:05.390Z,10.18
2018-12-15T10:56:07.878Z,9.20
2018-12-15T11:01:15.872Z,8.65
2018-12-15T11:06:18.853Z,10.18
2018-12-15T11:11:21.453Z,9.30
2018-12-15T11:16:24.061Z,10.45
2018-12-15T11:21:26.974Z,10.90
2018-12-15T11:26:29.459Z,9.75
2018-12-15T11:31:31.874Z,9.25
2018-12-15T11:36:34.303Z,9.55
2018-12-15T11:41:36.790Z,10.75
2018-12-15T11:46:39.218Z,10.20
2018-12-15T11:51:41.695Z,11.50
2018-12-15T11:56:44.170Z,9.28
2018-12-15T12:01:46.595Z,9.63
2018-12-15T12:06:49.000Z,9.75
2018-12-15T12:11:51.859Z,9.58
2018-12-15T12:16:54.368Z,10.20
2018-12-15T12:21:56.825Z,9.90
2018-12-15T12:27:00.366Z,10.13
2018-12-15T12:32:03.204Z,9.98
2018-12-15T12:37:05.765Z,10.53
2018-12-15T12:42:08.238Z,9.25
2018-12-15T12:47:10.966Z,9.23
2018-12-15T12:52:20.187Z,10.03
2018-12-15T12:57:22.628Z,9.33
2018-12-15T13:02:25.139Z,11.00
2018-12-15T13:07:27.662Z,9.80
2018-12-15T13:12:30.371Z,10.58
2018-12-15T13:17:32.990Z,10.15
2018-12-15T13:22:35.632Z,11.05
2018-12-15T13:27:38.147Z,11.12
2018-12-15T13:32:40.646Z,10.30
2018-12-15T13:37:43.152Z,10.45
2018-12-15T13:42:46.398Z,10.88
2018-12-15T13:47:48.990Z,10.45
2018-12-15T13:52:51.507Z,9.10
2018-12-15T13:57:54.179Z,10.68
2018-12-15T14:02:56.735Z,10.82
2018-12-15T14:07:59.429Z,10.25
2018-12-15T14:13:01.988Z,10.10
2018-12-15T14:18:04.477Z,10.60
2018-12-15T14:23:07.014Z,11.05
2018-12-15T14:28:09.563Z,10.32
2018-12-15T14:33:12.197Z,10.38
2018-12-15T14:38:14.788Z,10.95
2018-12-15T14:43:17.765Z,10.03
2018-12-15T14:48:20.323Z,10.50
2018-12-15T14:53:22.937Z,10.18
2018-12-15T14:58:25.490Z,11.45
2018-12-15T15:03:28.214Z,10.60
2018-12-15T15:08:30.855Z,10.80
2018-12-15T15:13:34.685Z,11.63
2018-12-15T15:18:38.583Z,10.63
2018-12-15T15:23:41.585Z,10.32
2018-12-15T15:28:44.200Z,11.18
2018-12-15T15:33:46.873Z,10.18
2018-12-15T15:38:49.428Z,11.22
2018-12-15T15:43:51.910Z,10.93
2018-12-15T15:48:54.470Z,10.98
2018-12-15T15:53:57.186Z,12.47
2018-12-15T15:58:59.607Z,10.68
2018-12-15T16:04:02.606Z,10.63
2018-12-15T16:09:08.501Z,11.05
2018-12-15T16:14:11.027Z,11.28
2018-12-15T16:19:13.461Z,10.20
2018-12-15T16:24:16.054Z,11.60
2018-12-15T16:29:18.641Z,10.43
2018-12-15T16:34:21.142Z,10.60
2018-12-15T16:39:23.677Z,10.25
2018-12-15T16:44:26.198Z,10.65
2018-12-15T16:49:28.690Z,10.55
2018-12-15T16:54:31.151Z,9.88
2018-12-15T16:59:33.646Z,10.30
2018-12-15T17:04:36.108Z,9.70
2018-12-15T17:09:38.633Z,9.70
2018-12-15T17:14:41.094Z,10.05
2018-12-15T17:19:43.548Z,9.65
2018-12-15T17:24:46.027Z,8.98
2018-12-15T17:29:48.495Z,8.80
2018-12-15T17:34:50.940Z,10.30
2018-12-15T17:39:53.403Z,10.55
2018-12-15T17:44:55.818Z,8.90
2018-12-15T17:49:58.619Z,9.45
2018-12-15T17:55:01.365Z,9.05
2018-12-15T18:00:06.175Z,9.45
2018-12-15T18:05:08.993Z,9.25
2018-12-15T18:10:11.769Z,9.80
2018-12-15T18:15:14.478Z,9.53
2018-12-15T18:20:17.084Z,9.65
2018-12-15T18:25:19.616Z,10.10
2018-12-15T18:30:22.125Z,9.83
2018-12-15T18:35:24.753Z,8.65
2018-12-15T18:40:27.299Z,9.10
2018-12-15T18:45:29.601Z,9.75
2018-12-15T18:50:32.480Z,10.30
2018-12-15T18:55:34.906Z,9.13
2018-12-15T19:00:40.627Z,9.38
2018-12-15T19:05:43.058Z,8.98
2018-12-15T19:10:45.969Z,10.55
2018-12-15T19:15:48.646Z,10.25
2018-12-15T19:20:51.070Z,9.75
2018-12-15T19:25:54.077Z,9.68
2018-12-15T19:30:56.401Z,10.15
2018-12-15T19:35:58.928Z,11.75
2018-12-15T19:41:01.308Z,9.78
2018-12-15T19:46:03.785Z,9.98
2018-12-15T19:51:06.309Z,10.70
2018-12-15T19:56:08.890Z,10.78
2018-12-15T20:01:11.412Z,11.12
2018-12-15T20:06:13.940Z,10.23
2018-12-15T20:11:16.581Z,9.90
2018-12-15T20:16:18.981Z,10.35
2018-12-15T20:21:21.705Z,10.15
2018-12-15T20:26:24.250Z,11.08
2018-12-15T20:31:26.633Z,9.85
2018-12-15T20:36:29.099Z,11.15
2018-12-15T20:41:32.904Z,10.78
2018-12-15T20:46:35.501Z,11.65
2018-12-15T20:51:42.747Z,11.60
2018-12-15T20:56:42.474Z,11.20
2018-12-15T21:01:45.166Z,10.70
2018-12-15T21:06:47.604Z,12.03
2018-12-15T21:11:50.799Z,10.35
2018-12-15T21:16:54.111Z,11.15
2018-12-15T21:21:56.734Z,10.70
2018-12-15T21:26:59.263Z,10.25
2018-12-15T21:32:01.969Z,10.90
2018-12-15T21:37:04.462Z,10.82
2018-12-15T21:42:08.176Z,11.63
2018-12-15T21:47:11.523Z,10.75
2018-12-15T21:52:15.387Z,10.90
2018-12-15T21:57:17.769Z,11.33
2018-12-15T22:02:20.262Z,16.10
2018-12-15T22:07:23.257Z,10.95
2018-12-15T22:12:25.941Z,11.73
2018-12-15T22:17:28.453Z,11.50
2018-12-15T22:22:31.158Z,10.32
2018-12-15T22:27:33.828Z,12.15
2018-12-15T22:32:36.419Z,11.38
2018-12-15T22:37:39.826Z,11.63
2018-12-15T22:42:42.180Z,11.78
2018-12-15T22:47:44.880Z,11.45
2018-12-15T22:52:47.321Z,13.45
2018-12-15T22:57:49.744Z,11.97
2018-12-15T23:02:52.130Z,11.12
2018-12-15T23:07:54.768Z,11.53
2018-12-15T23:12:57.782Z,11.35
2018-12-15T23:18:00.294Z,11.95
2018-12-15T23:23:02.719Z,11.53
2018-12-15T23:28:05.338Z,11.28
2018-12-15T23:33:08.238Z,11.48
2018-12-15T23:38:10.924Z,11.25
2018-12-15T23:43:13.319Z,11.73
2018-12-15T23:48:16.339Z,12.65
2018-12-15T23:53:19.145Z,11.83
2018-12-15T23:58:21.672Z,10.90
